sensor_id;sensor_type;location;lat;lon;timestamp;temperature;humidity
40059;SHT31;25763;49.972;8.568;2023-05-10T00:01:37;13.85;89.16
40059;SHT31;25763;49.972;8.568;2023-05-10T00:04:03;13.81;89.12
40059;SHT31;25763;49.972;8.568;2023-05-10T00:06:29;13.70;89.12
40059;SHT31;25763;49.972;8.568;2023-05-10T00:08:55;13.73;89.16
40059;SHT31;25763;49.972;8.568;2023-05-10T00:11:20;13.70;89.12
40059;SHT31;25763;49.972;8.568;2023-05-10T00:13:45;13.70;89.14
40059;SHT31;25763;49.972;8.568;2023-05-10T00:16:11;13.70;89.11
40059;SHT31;25763;49.972;8.568;2023-05-10T00:18:38;13.64;89.05
40059;SHT31;25763;49.972;8.568;2023-05-10T00:21:04;13.58;89.18
40059;SHT31;25763;49.972;8.568;2023-05-10T00:23:29;13.62;89.23
40059;SHT31;25763;49.972;8.568;2023-05-10T00:25:55;13.61;89.22
40059;SHT31;25763;49.972;8.568;2023-05-10T00:28:20;13.59;89.30
40059;SHT31;25763;49.972;8.568;2023-05-10T00:30:46;13.64;89.32
40059;SHT31;25763;49.972;8.568;2023-05-10T00:33:11;13.57;89.41
40059;SHT31;25763;49.972;8.568;2023-05-10T00:35:37;13.58;89.43
40059;SHT31;25763;49.972;8.568;2023-05-10T00:38:03;13.54;89.50
40059;SHT31;25763;49.972;8.568;2023-05-10T00:40:29;13.54;89.55
40059;SHT31;25763;49.972;8.568;2023-05-10T00:42:55;13.46;89.56
40059;SHT31;25763;49.972;8.568;2023-05-10T00:45:21;13.47;89.66
40059;SHT31;25763;49.972;8.568;2023-05-10T00:47:46;13.51;89.65
40059;SHT31;25763;49.972;8.568;2023-05-10T00:50:12;13.47;89.65
40059;SHT31;25763;49.972;8.568;2023-05-10T00:52:38;13.46;89.72
40059;SHT31;25763;49.972;8.568;2023-05-10T00:55:04;13.41;89.76
40059;SHT31;25763;49.972;8.568;2023-05-10T00:57:31;13.48;89.73
40059;SHT31;25763;49.972;8.568;2023-05-10T00:59:57;13.46;89.73
40059;SHT31;25763;49.972;8.568;2023-05-10T01:02:24;13.41;89.76
40059;SHT31;25763;49.972;8.568;2023-05-10T01:04:49;13.43;89.75
40059;SHT31;25763;49.972;8.568;2023-05-10T01:07:15;13.44;89.72
40059;SHT31;25763;49.972;8.568;2023-05-10T01:09:40;13.43;89.71
40059;SHT31;25763;49.972;8.568;2023-05-10T01:12:06;13.40;89.70
40059;SHT31;25763;49.972;8.568;2023-05-10T01:14:32;13.43;89.67
40059;SHT31;25763;49.972;8.568;2023-05-10T01:16:59;13.43;89.60
40059;SHT31;25763;49.972;8.568;2023-05-10T01:19:26;13.44;89.59
40059;SHT31;25763;49.972;8.568;2023-05-10T01:27:43;13.48;89.39
40059;SHT31;25763;49.972;8.568;2023-05-10T01:30:44;13.51;89.41
40059;SHT31;25763;49.972;8.568;2023-05-10T01:33:30;13.53;89.44
40059;SHT31;25763;49.972;8.568;2023-05-10T01:36:05;13.51;89.39
40059;SHT31;25763;49.972;8.568;2023-05-10T01:38:45;13.51;89.36
40059;SHT31;25763;49.972;8.568;2023-05-10T01:41:31;13.48;89.41
40059;SHT31;25763;49.972;8.568;2023-05-10T01:44:02;13.48;89.36
40059;SHT31;25763;49.972;8.568;2023-05-10T01:46:36;13.48;89.38
40059;SHT31;25763;49.972;8.568;2023-05-10T01:49:03;13.47;89.36
40059;SHT31;25763;49.972;8.568;2023-05-10T01:51:40;13.46;89.32
40059;SHT31;25763;49.972;8.568;2023-05-10T01:54:08;13.47;89.30
40059;SHT31;25763;49.972;8.568;2023-05-10T01:56:35;13.46;89.33
40059;SHT31;25763;49.972;8.568;2023-05-10T01:59:06;13.46;89.32
40059;SHT31;25763;49.972;8.568;2023-05-10T02:01:33;13.48;89.26
40059;SHT31;25763;49.972;8.568;2023-05-10T02:04:02;13.53;89.22
40059;SHT31;25763;49.972;8.568;2023-05-10T02:06:28;13.51;89.18
40059;SHT31;25763;49.972;8.568;2023-05-10T02:08:53;13.47;89.19
40059;SHT31;25763;49.972;8.568;2023-05-10T02:11:19;13.50;89.14
40059;SHT31;25763;49.972;8.568;2023-05-10T02:13:47;13.48;89.13
40059;SHT31;25763;49.972;8.568;2023-05-10T02:16:14;13.47;89.14
40059;SHT31;25763;49.972;8.568;2023-05-10T02:18:40;13.53;89.04
40059;SHT31;25763;49.972;8.568;2023-05-10T02:21:08;13.51;89.09
40059;SHT31;25763;49.972;8.568;2023-05-10T02:23:34;13.50;89.10
40059;SHT31;25763;49.972;8.568;2023-05-10T02:26:01;13.46;89.14
40059;SHT31;25763;49.972;8.568;2023-05-10T02:28:28;13.46;89.22
40059;SHT31;25763;49.972;8.568;2023-05-10T02:30:55;13.47;89.15
40059;SHT31;25763;49.972;8.568;2023-05-10T02:33:21;13.47;89.13
40059;SHT31;25763;49.972;8.568;2023-05-10T02:35:48;13.41;89.08
40059;SHT31;25763;49.972;8.568;2023-05-10T02:38:15;13.41;89.06
40059;SHT31;25763;49.972;8.568;2023-05-10T02:40:41;13.44;89.11
40059;SHT31;25763;49.972;8.568;2023-05-10T02:43:12;13.37;89.11
40059;SHT31;25763;49.972;8.568;2023-05-10T02:45:38;13.39;89.12
40059;SHT31;25763;49.972;8.568;2023-05-10T02:48:04;13.39;89.04
40059;SHT31;25763;49.972;8.568;2023-05-10T02:50:32;13.39;89.07
40059;SHT31;25763;49.972;8.568;2023-05-10T02:53:06;13.34;89.17
40059;SHT31;25763;49.972;8.568;2023-05-10T02:55:39;13.32;89.20
40059;SHT31;25763;49.972;8.568;2023-05-10T02:58:05;13.33;89.24
40059;SHT31;25763;49.972;8.568;2023-05-10T03:00:30;13.29;89.30
40059;SHT31;25763;49.972;8.568;2023-05-10T03:02:56;13.32;89.29
40059;SHT31;25763;49.972;8.568;2023-05-10T03:05:21;13.33;89.23
40059;SHT31;25763;49.972;8.568;2023-05-10T03:07:47;13.34;89.22
40059;SHT31;25763;49.972;8.568;2023-05-10T03:10:13;13.34;89.09
40059;SHT31;25763;49.972;8.568;2023-05-10T03:18:23;13.36;89.02
40059;SHT31;25763;49.972;8.568;2023-05-10T03:20:57;13.33;89.04
40059;SHT31;25763;49.972;8.568;2023-05-10T03:25:59;13.30;89.01
40059;SHT31;25763;49.972;8.568;2023-05-10T03:28:25;13.32;88.96
40059;SHT31;25763;49.972;8.568;2023-05-10T03:30:53;13.30;88.99
40059;SHT31;25763;49.972;8.568;2023-05-10T03:33:18;13.33;88.97
40059;SHT31;25763;49.972;8.568;2023-05-10T03:35:43;13.30;88.92
40059;SHT31;25763;49.972;8.568;2023-05-10T03:38:13;13.33;88.94
40059;SHT31;25763;49.972;8.568;2023-05-10T03:40:39;13.30;89.01
40059;SHT31;25763;49.972;8.568;2023-05-10T03:43:04;13.30;88.93
40059;SHT31;25763;49.972;8.568;2023-05-10T03:45:30;13.30;89.00
40059;SHT31;25763;49.972;8.568;2023-05-10T03:47:57;13.29;88.93
40059;SHT31;25763;49.972;8.568;2023-05-10T03:50:22;13.29;88.92
40059;SHT31;25763;49.972;8.568;2023-05-10T03:52:48;13.26;89.02
40059;SHT31;25763;49.972;8.568;2023-05-10T03:55:13;13.27;89.04
40059;SHT31;25763;49.972;8.568;2023-05-10T03:57:38;13.29;89.03
40059;SHT31;25763;49.972;8.568;2023-05-10T04:00:04;13.29;89.01
40059;SHT31;25763;49.972;8.568;2023-05-10T04:02:29;13.32;88.94
40059;SHT31;25763;49.972;8.568;2023-05-10T04:04:55;13.29;88.95
40059;SHT31;25763;49.972;8.568;2023-05-10T04:07:21;13.32;88.84
40059;SHT31;25763;49.972;8.568;2023-05-10T04:09:46;13.32;88.92
40059;SHT31;25763;49.972;8.568;2023-05-10T04:12:12;13.36;88.94
40059;SHT31;25763;49.972;8.568;2023-05-10T04:14:37;13.36;88.88
40059;SHT31;25763;49.972;8.568;2023-05-10T04:17:02;13.37;88.86
40059;SHT31;25763;49.972;8.568;2023-05-10T04:19:31;13.34;88.87
40059;SHT31;25763;49.972;8.568;2023-05-10T04:21:57;13.30;88.82
40059;SHT31;25763;49.972;8.568;2023-05-10T04:24:23;13.36;88.88
40059;SHT31;25763;49.972;8.568;2023-05-10T04:26:48;13.40;88.81
40059;SHT31;25763;49.972;8.568;2023-05-10T04:29:14;13.41;88.79
40059;SHT31;25763;49.972;8.568;2023-05-10T04:31:39;13.43;88.74
40059;SHT31;25763;49.972;8.568;2023-05-10T04:34:04;13.44;88.71
40059;SHT31;25763;49.972;8.568;2023-05-10T04:36:30;13.50;88.61
40059;SHT31;25763;49.972;8.568;2023-05-10T04:38:57;13.57;88.51
40059;SHT31;25763;49.972;8.568;2023-05-10T04:41:23;13.58;88.43
40059;SHT31;25763;49.972;8.568;2023-05-10T04:43:48;13.59;88.33
40059;SHT31;25763;49.972;8.568;2023-05-10T04:46:14;13.59;88.30
40059;SHT31;25763;49.972;8.568;2023-05-10T04:48:39;13.62;88.38
40059;SHT31;25763;49.972;8.568;2023-05-10T04:51:05;13.68;88.32
40059;SHT31;25763;49.972;8.568;2023-05-10T04:53:31;13.71;88.35
40059;SHT31;25763;49.972;8.568;2023-05-10T04:55:57;13.70;88.26
40059;SHT31;25763;49.972;8.568;2023-05-10T04:58:22;13.70;88.24
40059;SHT31;25763;49.972;8.568;2023-05-10T05:00:48;13.65;88.07
40059;SHT31;25763;49.972;8.568;2023-05-10T05:03:13;13.70;88.04
40059;SHT31;25763;49.972;8.568;2023-05-10T05:05:38;13.62;88.01
40059;SHT31;25763;49.972;8.568;2023-05-10T05:08:04;13.59;88.04
40059;SHT31;25763;49.972;8.568;2023-05-10T05:10:29;13.58;88.04
40059;SHT31;25763;49.972;8.568;2023-05-10T05:12:55;13.65;88.05
40059;SHT31;25763;49.972;8.568;2023-05-10T05:15:20;13.75;88.06
40059;SHT31;25763;49.972;8.568;2023-05-10T05:17:46;13.77;87.94
40059;SHT31;25763;49.972;8.568;2023-05-10T05:20:11;13.79;87.85
40059;SHT31;25763;49.972;8.568;2023-05-10T05:22:38;13.85;87.76
40059;SHT31;25763;49.972;8.568;2023-05-10T05:25:04;13.81;87.73
40059;SHT31;25763;49.972;8.568;2023-05-10T05:27:30;13.83;87.65
40059;SHT31;25763;49.972;8.568;2023-05-10T05:29:56;13.83;87.55
40059;SHT31;25763;49.972;8.568;2023-05-10T05:32:22;13.96;87.50
40059;SHT31;25763;49.972;8.568;2023-05-10T05:34:48;13.91;87.39
40059;SHT31;25763;49.972;8.568;2023-05-10T05:37:20;13.98;87.33
40059;SHT31;25763;49.972;8.568;2023-05-10T05:39:46;14.02;87.24
40059;SHT31;25763;49.972;8.568;2023-05-10T05:42:12;13.95;87.28
40059;SHT31;25763;49.972;8.568;2023-05-10T05:44:38;13.93;87.35
40059;SHT31;25763;49.972;8.568;2023-05-10T05:47:04;13.88;87.33
40059;SHT31;25763;49.972;8.568;2023-05-10T05:49:29;13.93;87.22
40059;SHT31;25763;49.972;8.568;2023-05-10T05:51:58;13.98;87.21
40059;SHT31;25763;49.972;8.568;2023-05-10T05:54:24;14.00;86.89
40059;SHT31;25763;49.972;8.568;2023-05-10T05:56:49;14.03;86.73
40059;SHT31;25763;49.972;8.568;2023-05-10T05:59:14;14.17;86.52
40059;SHT31;25763;49.972;8.568;2023-05-10T06:01:40;14.34;86.28
40059;SHT31;25763;49.972;8.568;2023-05-10T06:04:06;14.50;85.89
40059;SHT31;25763;49.972;8.568;2023-05-10T06:06:31;14.61;85.41
40059;SHT31;25763;49.972;8.568;2023-05-10T06:08:57;14.72;85.22
40059;SHT31;25763;49.972;8.568;2023-05-10T06:11:22;14.72;84.73
40059;SHT31;25763;49.972;8.568;2023-05-10T06:13:48;14.79;84.74
40059;SHT31;25763;49.972;8.568;2023-05-10T06:16:13;14.76;84.91
40059;SHT31;25763;49.972;8.568;2023-05-10T06:18:39;14.85;84.79
40059;SHT31;25763;49.972;8.568;2023-05-10T06:21:04;14.76;84.67
40059;SHT31;25763;49.972;8.568;2023-05-10T06:23:30;14.72;84.75
40059;SHT31;25763;49.972;8.568;2023-05-10T06:25:55;14.71;84.75
40059;SHT31;25763;49.972;8.568;2023-05-10T06:28:20;14.68;84.75
40059;SHT31;25763;49.972;8.568;2023-05-10T06:30:46;14.72;84.71
40059;SHT31;25763;49.972;8.568;2023-05-10T06:33:11;14.62;84.85
40059;SHT31;25763;49.972;8.568;2023-05-10T06:35:36;14.55;84.77
40059;SHT31;25763;49.972;8.568;2023-05-10T06:38:02;14.59;84.89
40059;SHT31;25763;49.972;8.568;2023-05-10T06:40:27;14.62;85.01
40059;SHT31;25763;49.972;8.568;2023-05-10T06:42:53;14.64;84.90
40059;SHT31;25763;49.972;8.568;2023-05-10T06:45:18;14.62;84.80
40059;SHT31;25763;49.972;8.568;2023-05-10T06:47:43;14.62;84.62
40059;SHT31;25763;49.972;8.568;2023-05-10T06:50:09;14.76;84.65
40059;SHT31;25763;49.972;8.568;2023-05-10T06:52:36;14.82;84.23
40059;SHT31;25763;49.972;8.568;2023-05-10T06:55:03;14.80;83.87
40059;SHT31;25763;49.972;8.568;2023-05-10T06:57:28;14.86;83.63
40059;SHT31;25763;49.972;8.568;2023-05-10T06:59:54;14.86;83.65
40059;SHT31;25763;49.972;8.568;2023-05-10T07:02:21;14.99;83.88
40059;SHT31;25763;49.972;8.568;2023-05-10T07:04:47;15.02;83.73
40059;SHT31;25763;49.972;8.568;2023-05-10T07:07:13;14.90;83.20
40059;SHT31;25763;49.972;8.568;2023-05-10T07:09:39;14.92;83.14
40059;SHT31;25763;49.972;8.568;2023-05-10T07:12:04;15.08;83.45
40059;SHT31;25763;49.972;8.568;2023-05-10T07:14:29;15.12;83.12
40059;SHT31;25763;49.972;8.568;2023-05-10T07:16:55;15.10;83.07
40059;SHT31;25763;49.972;8.568;2023-05-10T07:19:20;15.18;83.28
40059;SHT31;25763;49.972;8.568;2023-05-10T07:21:46;15.35;83.61
40059;SHT31;25763;49.972;8.568;2023-05-10T07:24:11;15.28;82.60
40059;SHT31;25763;49.972;8.568;2023-05-10T07:26:36;15.39;82.70
40059;SHT31;25763;49.972;8.568;2023-05-10T07:29:02;15.34;82.64
40059;SHT31;25763;49.972;8.568;2023-05-10T07:31:27;15.44;82.48
40059;SHT31;25763;49.972;8.568;2023-05-10T07:33:53;15.62;82.39
40059;SHT31;25763;49.972;8.568;2023-05-10T07:36:18;15.81;82.43
40059;SHT31;25763;49.972;8.568;2023-05-10T07:38:43;16.04;81.97
40059;SHT31;25763;49.972;8.568;2023-05-10T07:41:09;15.98;81.29
40059;SHT31;25763;49.972;8.568;2023-05-10T07:43:34;16.15;81.27
40059;SHT31;25763;49.972;8.568;2023-05-10T07:46:00;16.28;80.73
40059;SHT31;25763;49.972;8.568;2023-05-10T07:48:26;16.32;81.10
40059;SHT31;25763;49.972;8.568;2023-05-10T07:50:51;16.42;80.70
40059;SHT31;25763;49.972;8.568;2023-05-10T07:53:16;16.47;80.55
40059;SHT31;25763;49.972;8.568;2023-05-10T07:55:43;16.73;81.34
40059;SHT31;25763;49.972;8.568;2023-05-10T07:58:09;16.94;80.23
40059;SHT31;25763;49.972;8.568;2023-05-10T08:00:34;16.85;79.48
40059;SHT31;25763;49.972;8.568;2023-05-10T08:03:00;16.95;79.72
40059;SHT31;25763;49.972;8.568;2023-05-10T08:05:25;16.87;79.89
40059;SHT31;25763;49.972;8.568;2023-05-10T08:07:50;16.70;79.66
40059;SHT31;25763;49.972;8.568;2023-05-10T08:10:16;16.98;79.67
40059;SHT31;25763;49.972;8.568;2023-05-10T08:12:41;17.04;79.14
40059;SHT31;25763;49.972;8.568;2023-05-10T08:15:08;17.14;79.53
40059;SHT31;25763;49.972;8.568;2023-05-10T08:17:33;17.11;79.12
40059;SHT31;25763;49.972;8.568;2023-05-10T08:19:59;17.09;78.55
40059;SHT31;25763;49.972;8.568;2023-05-10T08:22:24;17.08;78.87
40059;SHT31;25763;49.972;8.568;2023-05-10T08:24:49;17.09;78.00
40059;SHT31;25763;49.972;8.568;2023-05-10T08:27:15;16.98;77.68
40059;SHT31;25763;49.972;8.568;2023-05-10T08:29:40;16.92;78.42
40059;SHT31;25763;49.972;8.568;2023-05-10T08:32:05;16.98;78.35
40059;SHT31;25763;49.972;8.568;2023-05-10T08:34:31;16.68;78.01
40059;SHT31;25763;49.972;8.568;2023-05-10T08:36:56;16.85;78.95
40059;SHT31;25763;49.972;8.568;2023-05-10T08:39:22;16.68;79.02
40059;SHT31;25763;49.972;8.568;2023-05-10T08:41:51;16.63;79.61
40059;SHT31;25763;49.972;8.568;2023-05-10T08:44:16;16.56;79.34
40059;SHT31;25763;49.972;8.568;2023-05-10T08:46:46;16.38;78.96
40059;SHT31;25763;49.972;8.568;2023-05-10T08:49:17;16.21;79.39
40059;SHT31;25763;49.972;8.568;2023-05-10T08:51:50;16.24;79.69
40059;SHT31;25763;49.972;8.568;2023-05-10T08:54:16;16.18;80.14
40059;SHT31;25763;49.972;8.568;2023-05-10T08:56:42;16.30;81.01
40059;SHT31;25763;49.972;8.568;2023-05-10T08:59:08;16.53;81.43
40059;SHT31;25763;49.972;8.568;2023-05-10T09:01:35;16.53;81.15
40059;SHT31;25763;49.972;8.568;2023-05-10T09:04:01;16.50;80.41
40059;SHT31;25763;49.972;8.568;2023-05-10T09:06:28;16.60;80.78
40059;SHT31;25763;49.972;8.568;2023-05-10T09:08:53;16.52;80.67
40059;SHT31;25763;49.972;8.568;2023-05-10T09:11:19;16.56;81.47
40059;SHT31;25763;49.972;8.568;2023-05-10T09:13:47;16.38;81.20
40059;SHT31;25763;49.972;8.568;2023-05-10T09:16:13;16.08;82.54
40059;SHT31;25763;49.972;8.568;2023-05-10T09:18:38;15.77;82.59
40059;SHT31;25763;49.972;8.568;2023-05-10T09:21:03;15.98;83.10
40059;SHT31;25763;49.972;8.568;2023-05-10T09:23:29;16.05;82.54
40059;SHT31;25763;49.972;8.568;2023-05-10T09:26:06;16.10;82.96
40059;SHT31;25763;49.972;8.568;2023-05-10T09:28:51;16.05;82.84
40059;SHT31;25763;49.972;8.568;2023-05-10T09:31:16;16.25;83.34
40059;SHT31;25763;49.972;8.568;2023-05-10T09:33:48;16.30;82.57
40059;SHT31;25763;49.972;8.568;2023-05-10T09:36:14;16.53;82.76
40059;SHT31;25763;49.972;8.568;2023-05-10T09:38:49;16.50;81.97
40059;SHT31;25763;49.972;8.568;2023-05-10T09:41:23;16.24;81.75
40059;SHT31;25763;49.972;8.568;2023-05-10T09:43:49;15.88;81.45
40059;SHT31;25763;49.972;8.568;2023-05-10T09:46:15;15.80;81.92
40059;SHT31;25763;49.972;8.568;2023-05-10T09:48:43;15.34;82.79
40059;SHT31;25763;49.972;8.568;2023-05-10T09:51:09;15.24;83.53
40059;SHT31;25763;49.972;8.568;2023-05-10T09:53:35;15.03;84.27
40059;SHT31;25763;49.972;8.568;2023-05-10T09:56:01;14.92;84.49
40059;SHT31;25763;49.972;8.568;2023-05-10T09:58:27;15.12;84.29
40059;SHT31;25763;49.972;8.568;2023-05-10T10:00:53;15.17;84.40
40059;SHT31;25763;49.972;8.568;2023-05-10T10:03:21;15.31;84.10
40059;SHT31;25763;49.972;8.568;2023-05-10T10:05:48;15.35;83.91
40059;SHT31;25763;49.972;8.568;2023-05-10T10:08:14;15.49;84.19
40059;SHT31;25763;49.972;8.568;2023-05-10T10:10:40;15.69;84.34
40059;SHT31;25763;49.972;8.568;2023-05-10T10:13:06;15.91;84.17
40059;SHT31;25763;49.972;8.568;2023-05-10T10:15:33;16.20;84.27
40059;SHT31;25763;49.972;8.568;2023-05-10T10:17:59;16.38;83.88
40059;SHT31;25763;49.972;8.568;2023-05-10T10:20:26;16.26;82.37
40059;SHT31;25763;49.972;8.568;2023-05-10T10:22:51;16.17;82.54
40059;SHT31;25763;49.972;8.568;2023-05-10T10:25:18;16.32;82.99
40059;SHT31;25763;49.972;8.568;2023-05-10T10:36:03;17.16;82.12
40059;SHT31;25763;49.972;8.568;2023-05-10T10:38:36;16.95;80.42
40059;SHT31;25763;49.972;8.568;2023-05-10T10:41:09;16.84;81.05
40059;SHT31;25763;49.972;8.568;2023-05-10T10:43:35;16.75;81.36
40059;SHT31;25763;49.972;8.568;2023-05-10T10:46:16;16.73;81.22
40059;SHT31;25763;49.972;8.568;2023-05-10T10:48:50;16.42;81.58
40059;SHT31;25763;49.972;8.568;2023-05-10T10:51:37;16.15;81.67
40059;SHT31;25763;49.972;8.568;2023-05-10T10:54:09;16.14;82.00
40059;SHT31;25763;49.972;8.568;2023-05-10T10:56:35;16.01;82.35
40059;SHT31;25763;49.972;8.568;2023-05-10T10:59:01;15.83;82.11
40059;SHT31;25763;49.972;8.568;2023-05-10T11:01:32;15.69;83.11
40059;SHT31;25763;49.972;8.568;2023-05-10T11:06:33;16.05;83.35
40059;SHT31;25763;49.972;8.568;2023-05-10T11:09:04;16.08;83.98
40059;SHT31;25763;49.972;8.568;2023-05-10T11:11:30;15.76;83.02
40059;SHT31;25763;49.972;8.568;2023-05-10T11:14:03;15.52;82.17
40059;SHT31;25763;49.972;8.568;2023-05-10T11:16:40;15.46;81.59
40059;SHT31;25763;49.972;8.568;2023-05-10T11:19:14;15.39;82.53
40059;SHT31;25763;49.972;8.568;2023-05-10T11:21:51;15.27;81.91
40059;SHT31;25763;49.972;8.568;2023-05-10T11:24:20;15.34;81.99
40059;SHT31;25763;49.972;8.568;2023-05-10T11:26:45;15.41;82.21
40059;SHT31;25763;49.972;8.568;2023-05-10T11:29:13;15.51;82.09
40059;SHT31;25763;49.972;8.568;2023-05-10T11:31:45;15.79;83.14
40059;SHT31;25763;49.972;8.568;2023-05-10T11:34:12;15.94;81.73
40059;SHT31;25763;49.972;8.568;2023-05-10T11:36:51;16.28;82.42
40059;SHT31;25763;49.972;8.568;2023-05-10T11:39:19;16.57;80.42
40059;SHT31;25763;49.972;8.568;2023-05-10T11:41:48;16.95;80.63
40059;SHT31;25763;49.972;8.568;2023-05-10T11:44:13;16.91;78.17
40059;SHT31;25763;49.972;8.568;2023-05-10T11:46:39;16.98;77.67
40059;SHT31;25763;49.972;8.568;2023-05-10T11:49:07;16.78;74.93
40059;SHT31;25763;49.972;8.568;2023-05-10T11:51:34;17.15;77.33
40059;SHT31;25763;49.972;8.568;2023-05-10T11:54:01;17.18;76.48
40059;SHT31;25763;49.972;8.568;2023-05-10T11:56:27;16.98;74.62
40059;SHT31;25763;49.972;8.568;2023-05-10T11:58:57;17.27;74.16
40059;SHT31;25763;49.972;8.568;2023-05-10T12:01:26;17.37;73.60
40059;SHT31;25763;49.972;8.568;2023-05-10T12:03:53;17.40;72.75
40059;SHT31;25763;49.972;8.568;2023-05-10T12:06:20;17.49;70.88
40059;SHT31;25763;49.972;8.568;2023-05-10T12:08:47;17.50;70.37
40059;SHT31;25763;49.972;8.568;2023-05-10T12:11:13;17.86;71.92
40059;SHT31;25763;49.972;8.568;2023-05-10T12:13:42;18.12;71.45
40059;SHT31;25763;49.972;8.568;2023-05-10T12:16:37;18.20;69.80
40059;SHT31;25763;49.972;8.568;2023-05-10T12:19:02;18.38;71.08
40059;SHT31;25763;49.972;8.568;2023-05-10T12:21:29;18.17;66.70
40059;SHT31;25763;49.972;8.568;2023-05-10T12:24:00;18.31;66.51
40059;SHT31;25763;49.972;8.568;2023-05-10T12:26:26;18.40;67.79
40059;SHT31;25763;49.972;8.568;2023-05-10T12:29:14;18.85;68.51
40059;SHT31;25763;49.972;8.568;2023-05-10T12:31:58;18.89;65.99
40059;SHT31;25763;49.972;8.568;2023-05-10T12:36:52;19.00;66.53
40059;SHT31;25763;49.972;8.568;2023-05-10T12:39:18;18.85;66.10
40059;SHT31;25763;49.972;8.568;2023-05-10T12:41:43;18.85;65.16
40059;SHT31;25763;49.972;8.568;2023-05-10T12:44:08;19.12;66.19
40059;SHT31;25763;49.972;8.568;2023-05-10T12:46:34;19.10;62.64
40059;SHT31;25763;49.972;8.568;2023-05-10T12:48:59;19.39;63.25
40059;SHT31;25763;49.972;8.568;2023-05-10T12:51:24;19.20;64.41
40059;SHT31;25763;49.972;8.568;2023-05-10T12:53:50;19.74;63.96
40059;SHT31;25763;49.972;8.568;2023-05-10T12:56:15;19.96;61.82
40059;SHT31;25763;49.972;8.568;2023-05-10T12:58:41;19.83;61.29
40059;SHT31;25763;49.972;8.568;2023-05-10T13:01:06;19.70;59.78
40059;SHT31;25763;49.972;8.568;2023-05-10T13:03:32;19.81;62.35
40059;SHT31;25763;49.972;8.568;2023-05-10T13:05:57;20.33;63.09
40059;SHT31;25763;49.972;8.568;2023-05-10T13:08:23;19.88;61.21
40059;SHT31;25763;49.972;8.568;2023-05-10T13:10:48;20.07;61.06
40059;SHT31;25763;49.972;8.568;2023-05-10T13:13:14;19.80;61.85
40059;SHT31;25763;49.972;8.568;2023-05-10T13:15:39;19.86;62.78
40059;SHT31;25763;49.972;8.568;2023-05-10T13:18:04;19.62;61.10
40059;SHT31;25763;49.972;8.568;2023-05-10T13:20:30;19.93;60.17
40059;SHT31;25763;49.972;8.568;2023-05-10T13:22:55;20.05;61.83
40059;SHT31;25763;49.972;8.568;2023-05-10T13:25:21;20.10;60.74
40059;SHT31;25763;49.972;8.568;2023-05-10T13:27:46;19.86;60.05
40059;SHT31;25763;49.972;8.568;2023-05-10T13:30:11;19.63;59.11
40059;SHT31;25763;49.972;8.568;2023-05-10T13:32:37;19.20;60.10
40059;SHT31;25763;49.972;8.568;2023-05-10T13:35:04;18.58;60.47
40059;SHT31;25763;49.972;8.568;2023-05-10T13:37:30;18.52;61.68
40059;SHT31;25763;49.972;8.568;2023-05-10T13:39:56;18.34;61.68
40059;SHT31;25763;49.972;8.568;2023-05-10T13:42:22;18.38;61.94
40059;SHT31;25763;49.972;8.568;2023-05-10T13:44:49;18.23;61.50
40059;SHT31;25763;49.972;8.568;2023-05-10T13:47:14;18.34;63.12
40059;SHT31;25763;49.972;8.568;2023-05-10T13:49:39;18.16;62.78
40059;SHT31;25763;49.972;8.568;2023-05-10T13:52:05;18.16;63.34
40059;SHT31;25763;49.972;8.568;2023-05-10T13:54:38;18.18;62.88
40059;SHT31;25763;49.972;8.568;2023-05-10T13:57:03;18.38;62.41
40059;SHT31;25763;49.972;8.568;2023-05-10T13:59:29;18.44;62.13
40059;SHT31;25763;49.972;8.568;2023-05-10T14:01:57;18.67;61.05
40059;SHT31;25763;49.972;8.568;2023-05-10T14:04:22;19.07;59.90
40059;SHT31;25763;49.972;8.568;2023-05-10T14:06:47;19.31;60.37
40059;SHT31;25763;49.972;8.568;2023-05-10T14:09:13;19.20;60.51
40059;SHT31;25763;49.972;8.568;2023-05-10T14:11:39;19.51;60.35
40059;SHT31;25763;49.972;8.568;2023-05-10T14:14:08;19.93;59.71
40059;SHT31;25763;49.972;8.568;2023-05-10T14:16:34;19.98;59.65
40059;SHT31;25763;49.972;8.568;2023-05-10T14:18:59;20.00;58.75
40059;SHT31;25763;49.972;8.568;2023-05-10T14:21:24;19.70;59.05
40059;SHT31;25763;49.972;8.568;2023-05-10T14:23:50;19.72;59.80
40059;SHT31;25763;49.972;8.568;2023-05-10T14:26:15;19.87;59.61
40059;SHT31;25763;49.972;8.568;2023-05-10T14:28:41;19.65;58.19
40059;SHT31;25763;49.972;8.568;2023-05-10T14:31:06;19.42;58.05
40059;SHT31;25763;49.972;8.568;2023-05-10T14:33:32;19.37;61.05
40059;SHT31;25763;49.972;8.568;2023-05-10T14:35:57;18.92;60.41
40059;SHT31;25763;49.972;8.568;2023-05-10T14:38:23;18.79;61.76
40059;SHT31;25763;49.972;8.568;2023-05-10T14:40:48;18.97;62.66
40059;SHT31;25763;49.972;8.568;2023-05-10T14:43:14;19.17;62.83
40059;SHT31;25763;49.972;8.568;2023-05-10T14:45:39;19.08;62.01
40059;SHT31;25763;49.972;8.568;2023-05-10T14:48:05;19.24;62.76
40059;SHT31;25763;49.972;8.568;2023-05-10T14:50:31;18.82;62.03
40059;SHT31;25763;49.972;8.568;2023-05-10T14:52:57;18.65;63.31
40059;SHT31;25763;49.972;8.568;2023-05-10T14:55:23;18.69;63.39
40059;SHT31;25763;49.972;8.568;2023-05-10T14:57:48;18.89;64.10
40059;SHT31;25763;49.972;8.568;2023-05-10T15:00:15;18.79;62.21
40059;SHT31;25763;49.972;8.568;2023-05-10T15:02:41;18.87;62.38
40059;SHT31;25763;49.972;8.568;2023-05-10T15:05:06;18.99;61.91
40059;SHT31;25763;49.972;8.568;2023-05-10T15:07:32;18.90;63.01
40059;SHT31;25763;49.972;8.568;2023-05-10T15:09:57;18.85;62.25
40059;SHT31;25763;49.972;8.568;2023-05-10T15:12:22;18.85;62.53
40059;SHT31;25763;49.972;8.568;2023-05-10T15:14:48;18.87;63.31
40059;SHT31;25763;49.972;8.568;2023-05-10T15:17:13;18.96;62.55
40059;SHT31;25763;49.972;8.568;2023-05-10T15:19:39;18.93;61.79
40059;SHT31;25763;49.972;8.568;2023-05-10T15:22:04;18.92;63.27
40059;SHT31;25763;49.972;8.568;2023-05-10T15:24:30;18.89;61.12
40059;SHT31;25763;49.972;8.568;2023-05-10T15:26:56;18.80;61.68
40059;SHT31;25763;49.972;8.568;2023-05-10T15:29:21;18.93;62.65
40059;SHT31;25763;49.972;8.568;2023-05-10T15:31:47;19.02;62.33
40059;SHT31;25763;49.972;8.568;2023-05-10T15:34:13;19.07;61.81
40059;SHT31;25763;49.972;8.568;2023-05-10T15:36:39;19.10;62.18
40059;SHT31;25763;49.972;8.568;2023-05-10T15:39:04;19.00;61.40
40059;SHT31;25763;49.972;8.568;2023-05-10T15:41:30;19.06;61.58
40059;SHT31;25763;49.972;8.568;2023-05-10T15:43:55;19.04;61.81
40059;SHT31;25763;49.972;8.568;2023-05-10T15:46:21;18.94;61.87
40059;SHT31;25763;49.972;8.568;2023-05-10T15:48:46;18.80;62.47
40059;SHT31;25763;49.972;8.568;2023-05-10T15:51:12;18.64;62.19
40059;SHT31;25763;49.972;8.568;2023-05-10T15:53:37;18.50;61.74
40059;SHT31;25763;49.972;8.568;2023-05-10T15:56:02;18.40;62.12